Arvidsjaur, Sweden

6:53 PM CEST on September 02, 2014 (GMT +0200)
Arvidsjaur | Change Station
CLOSE
Current Station
Airport
Location: ARVIDSJAUR,
Elevation: 1243 ft
Nearby Weather Stations

Elev 1243 ft 65.59 °N, 19.28 °E | Updated 33 minutes ago

Clear
Clear
59 °F
Feels Like 59 °F
N
9
Wind Variable Wind from West

Today
High -- | Low -- °F
--% Chance of Precip.
Yesterday
High -- | Low -- °F
Precip. -- in
5:22 AM 8:00 PM
First Quarter, 53% visible
Pressure 30.06 in
Visibility -9999.0 miles
Clouds
Dew Point 45 °F
Humidity 59%
Rainfall 0.00 in
Snow Depth Not available.
UV Not available.
Pollen Not available.
Air Quality Not available.
Flu Activity Not available.
METAR ESNX 021620Z 26008KT CAVOK 15/07 Q1018

More Conditions Fewer Conditions

Pressure 30.06 in
Visibility -9999.0 miles
Clouds
Dew Point 45 °F
Humidity 59%
Rainfall 0.00 in
Snow Depth Not available.
UV Not available.
Pollen Not available.
Air Quality Not available.
Flu Activity Not available.
METAR ESNX 021620Z 26008KT CAVOK 15/07 Q1018

More Conditions Fewer Conditions

10-Day Weather Forecast

Almanac

Astronomy

Sep. 02, 2014 Rise Set
Actual Time 5:22 AM CEST 8:00 PM CEST
Civil Twilight 4:25 AM CEST 8:57 PM CEST
Nautical Twilight 3:03 AM CEST 10:17 PM CEST
Astronomical Twilight 1:15 AM CEST 12:10 AM CEST
Moon 3:45 PM CEST 9:41 PM CEST
Length of Visible Light 16h 32m
Length of Day
14h 38m
Tomorrow will be 6m 58s shorter.
First Quarter, 53% of the Moon is Illuminated
Today
First Quarter
Sep 8
Full
Sep 15
Last Quarter
Sep 24
New
Oct 1
First Quarter

Today's Extremes

Country Highs Country Lows

Community

WunderPhotos

Upload Photos

1,749,716 photos uploaded!

WunderBlogs® & News

Nearby

Snow Depth

Not available.

Earthquake Activity

City Distance Mag. Time & Date
No recent earthquake activity has been reported nearby.
Minimum magnitude displayed is 2.5.

Coastal Water Temperatures

Place Temperature
No Stations Reporting

Nearby Weather Stations